Tiempo atmosférico en la estación meteorológica de Taramundi, Ouria, Asturias (335 m.)



Fecha
DESCASC
Temp. máxima en grados centígrados (hora)
DESCASC
Temp. mínima en grados centígrados (hora)
DESCASC
Temp. media en grados centígrados
DESCASC
Racha de viento máxima en m/sg (hora)
DESCASC
Velocidad máxima media en intervalos de 10 minutos(hora)
DESCASC
Precipitaciones diarias en mm
DESCASC
Precipitaciones de 00:00 a 06:00 en mm
DESCASC
Precipitaciones de 06:00 a 12:00 en mm
DESCASC
Precipitaciones de 12:00 a 18:00 en mm
DESCASC
Precipitaciones de 18:00 a 24:00 en mm
DESCASC
06-07-2020 15.7 (00:00) 14.3 (23:10) 15 12.5 (21:00) 8.06 (10:00) 3.8 2.4 1.4 0 0
05-07-2020 21.1 (13:40) 14 (05:50) 17.6 8.33 (14:40) 6.67 (14:40) 0.6 0 0 0 0.6
04-07-2020 23 (15:00) 10 (05:30) 16.5 7.5 (16:50) 6.11 (16:50) 0 0 0 0 0
03-07-2020 17.9 (13:50) 9 (07:30) 13.4 8.33 (14:20) 6.11 (14:10) 0 0 0 0 0
02-07-2020 15.7 (13:50) 12.3 (00:00) 14 7.5 (14:20) 5.83 (14:20) 4.2 0.2 4 0 0
01-07-2020 18.9 (11:00) 13.6 (00:00) 16.3 7.5 (18:50) 5.56 (18:20) 0.2 0 0 0 0.2
30-06-2020 22.2 (17:50) 11.7 (00:00) 17 7.5 (17:10) 5.83 (17:10) 0 0 0 0 0
29-06-2020 19.1 (18:00) 13.4 (00:00) 16.3 6.11 (17:00) 4.44 (19:30) 2.2 0.6 1.4 0.2 0
28-06-2020 21.9 (14:50) 14.3 (00:00) 18.1 11.11 (06:30) 6.94 (06:40) 4.8 0 0 0.2 4.6
27-06-2020 22.7 (18:40) 14.5 (00:00) 18.6 16.11 (02:40) 9.72 (03:00) 0 0 0 0 0
26-06-2020 23.2 (16:40) 13.2 (00:00) 18.2 12.22 (15:00) 6.94 (19:40) 0 0 0 0 0
25-06-2020 17 (16:40) 13.8 (00:00) 15.4 6.67 (17:30) 4.72 (17:30) 0.2 0 0 0 0.2
24-06-2020 21.4 (14:20) 15.3 (00:00) 18.3 7.78 (16:40) 6.11 (16:40) 0.4 0.2 0.2 0 0
23-06-2020 24.8 (16:40) 14.4 (00:00) 19.6 4.17 (15:40) 3.33 (17:20) 0.2 0 0.2 0 0
22-06-2020 21.9 (16:30) 11.5 (00:00) 16.7 6.94 (15:10) 5.56 (15:20) 0 0 0 0 0
21-06-2020 22 (16:20) 13.8 (00:00) 17.9 12.5 (11:20) 8.33 (11:20) 0 0 0 0 0
20-06-2020 22.6 (14:00) 11.9 (00:00) 17.3 9.17 (13:40) 6.11 (15:50) 0 0 0 0 0
19-06-2020 19.8 (13:40) 9.3 (00:00) 14.5 7.5 (17:40) 6.11 (17:30) 0 0 0 0 0
18-06-2020 17.8 (14:00) 8.6 (00:00) 13.2 9.17 (14:30) 7.22 (14:40) 0.2 0 0 0.2 0
17-06-2020 15.5 (11:40) 11.3 (00:00) 13.4 5.83 (11:00) 4.17 (11:00) 4.6 0.4 0 2 2.2
16-06-2020 16.2 (16:40) 12.3 (00:00) 14.3 8.33 (15:20) 4.72 (00:10) 6.4 2.2 2.4 0 1.8
15-06-2020 17.7 (18:50) 12.8 (00:00) 15.3 13.89 (08:30) 8.06 (10:00) 0 0 0 0 0
14-06-2020 17.2 (14:10) 11.5 (00:00) 14.4 14.17 (11:30) 8.33 (11:30) 0 0 0 0 0
13-06-2020 16.6 (16:40) 11 (00:00) 13.8 14.72 (19:30) 8.61 (19:30) 2 1.2 0.4 0.4 0
12-06-2020 15.7 (17:20) 9.2 (00:00) 12.4 13.89 (00:10) 8.06 (00:10) 7.2 2 3 1 1.2
11-06-2020 14.1 (14:00) 10.2 (00:00) 12.2 17.78 (23:00) 10.83 (23:00) 8.8 0 4.4 1.8 2.6

Gráficas

Temp. máximas Temp. mínimas Temp. medias Precipitaciones Rachas de viento máximas Velocidades máximas media en intervalos de 10 minutos

Datos horarios

Fecha y hora oficial Temperatura (ºC) Velocidad del viento (km/h) Dirección del viento Racha (km/h) Dirección de racha Precipitación (mm) Presión (hPa) Tendencia (hPa) Humedad (%)
2020-07-10 23:00:00 14.7 21 Norte 29 Norte 0 -- -- 99
2020-07-10 22:00:00 15 20 Norte 34 Norte 0 -- -- 99
2020-07-10 21:00:00 15.1 21 Norte 33 Norte 0 -- -- 100
2020-07-10 20:00:00 15.4 21 Norte 32 Norte 0 -- -- 100
2020-07-10 19:00:00 15.4 26 Norte 35 Norte 0 -- -- 100
2020-07-10 18:00:00 15.2 24 Norte 33 Norte 0 -- -- 100
2020-07-10 17:00:00 16.2 22 Norte 31 Norte 0 -- -- 100
2020-07-10 16:00:00 15.6 18 Norte 29 Norte 0 -- -- 100
2020-07-10 15:00:00 14.8 20 Norte 31 Norte 0.4 -- -- 100
2020-07-10 14:00:00 14.8 21 Norte 27 Noroeste 0.8 -- -- 100
2020-07-10 13:00:00 14.8 21 Norte 29 Norte 0.4 -- -- 100
2020-07-10 12:00:00 14.5 19 Norte 28 Norte 0.4 -- -- 100
2020-07-10 11:00:00 14.8 16 Norte 24 Norte 0.4 -- -- 100
2020-07-10 10:00:00 14.5 15 Norte 22 Norte 0.6 -- -- 100
2020-07-10 09:00:00 14.3 13 Norte 20 Norte 0.8 -- -- 100
2020-07-10 08:00:00 14.3 12 Norte 20 Norte 1.2 -- -- 100
2020-07-10 07:00:00 13.9 10 Norte 14 Norte 0.8 -- -- 100
2020-07-10 06:00:00 14.2 5 Norte 9 Norte 0 -- -- 100
2020-07-10 05:00:00 14.7 5 Norte 14 Este 0 -- -- 98
2020-07-10 04:00:00 14.4 3 Nordeste 5 Norte 0 -- -- 100
2020-07-10 03:00:00 13.9 3 Norte 6 Norte 0 -- -- 100
2020-07-10 02:00:00 14.4 5 Norte 14 Norte 0 -- -- 100
2020-07-10 01:00:00 14.9 10 Norte 15 Norte 0 -- -- 100
2020-07-10 00:00:00 15.2 11 Norte 16 Norte 0 -- -- 100
2020-07-09 23:00:00 15.4 13 Norte 19 Norte 0 -- -- 99
2020-07-09 22:00:00 15.7 13 Norte 17 Norte 0 -- -- 97
2020-07-09 21:00:00 16.3 12 Norte 20 Norte 0 -- -- 91
2020-07-09 20:00:00 18.9 15 Norte 24 Norte 0 -- -- 82
2020-07-09 19:00:00 19.2 22 Norte 30 Norte 0 -- -- 78
2020-07-09 18:00:00 20 24 Norte 31 Norte 0 -- -- 74
2020-07-09 17:00:00 20.2 23 Norte 33 Norte 0 -- -- 74
2020-07-09 16:00:00 20.6 23 Norte 29 Norte 0 -- -- 85
2020-07-09 15:00:00 20.6 21 Norte 28 Norte 0 -- -- 84
2020-07-09 14:00:00 20.7 18 Norte 26 Norte 0 -- -- 84
2020-07-09 13:00:00 20.5 18 Norte 27 Norte 0 -- -- 89
2020-07-09 12:00:00 19.7 14 Norte 22 Norte 0 -- -- 98
2020-07-09 11:00:00 17.3 14 Norte 21 Norte 0 -- -- 100
2020-07-09 10:00:00 16 14 Norte 21 Norte 0 -- -- 100
2020-07-09 09:00:00 15.2 13 Norte 18 Norte 0 -- -- 100
2020-07-09 08:00:00 15.2 8 Norte 13 Norte 0 -- -- 100
2020-07-09 07:00:00 15.1 10 Norte 14 Norte 0 -- -- 100
2020-07-09 06:00:00 15.3 9 Norte 17 Norte 0 -- -- 100
2020-07-09 05:00:00 15.5 15 Norte 21 Norte 0 -- -- 100
2020-07-09 04:00:00 15.9 15 Norte 22 Norte 0 -- -- 100
2020-07-09 03:00:00 15.9 13 Norte 18 Norte 0 -- -- 100
2020-07-09 02:00:00 16 13 Norte 21 Norte 0 -- -- 100
2020-07-09 01:00:00 16.3 12 Norte 21 Norte 0 -- -- 100
2020-07-09 00:00:00 16.4 19 Norte 30 Norte 0 -- -- 100
2020-07-08 23:00:00 16.5 26 Norte 33 Norte 0 -- -- 100
2020-07-08 22:00:00 16.7 21 Norte 30 Norte 0 -- -- 100
2020-07-08 21:00:00 17.4 18 Norte 39 Norte 0 -- -- 98
2020-07-08 20:00:00 17.3 28 Norte 45 Noroeste 0 -- -- 100
2020-07-08 19:00:00 17.2 28 Norte 37 Norte 0 -- -- 100
2020-07-08 18:00:00 16.9 25 Norte 44 Norte 0 -- -- 100
2020-07-08 17:00:00 16.6 28 Norte 43 Norte 0 -- -- 100
2020-07-08 16:00:00 16.8 25 Norte 41 Norte 0 -- -- 100
2020-07-08 15:00:00 17.8 23 Norte 36 Norte 0 -- -- 99
2020-07-08 14:00:00 17.2 24 Norte 33 Norte 0 -- -- 99
2020-07-08 13:00:00 17.6 25 Norte 32 Norte 0 -- -- 99
2020-07-08 12:00:00 16.8 23 Norte 32 Norte 0 -- -- 100
2020-07-08 11:00:00 16 19 Norte 32 Norte 0 -- -- 100
2020-07-08 10:00:00 15.6 20 Norte 29 Norte 0 -- -- 100
2020-07-08 09:00:00 15.4 18 Norte 27 Norte 0 -- -- 100
2020-07-08 08:00:00 15.4 18 Norte 25 Norte 0 -- -- 100
2020-07-08 07:00:00 15.2 14 Norte 18 Norte 0 -- -- 100
2020-07-08 06:00:00 15 10 Norte 13 Norte 0 -- -- 100
2020-07-08 05:00:00 15.1 7 Norte 12 Nordeste 0 -- -- 100
2020-07-08 04:00:00 15.2 6 Norte 8 Norte 0 -- -- 100
2020-07-08 03:00:00 15.1 5 Norte 9 Norte 0 -- -- 100
2020-07-08 02:00:00 15.3 6 Norte 9 Noroeste 0 -- -- 100
2020-07-08 01:00:00 15.3 2 Norte 7 Norte 0 -- -- 100
2020-07-08 00:00:00 15.5 3 Norte 9 Norte 0 -- -- 99
2020-07-07 23:00:00 15.6 6 Norte 9 Norte 0 -- -- 98
2020-07-07 22:00:00 15.9 6 Norte 11 Norte 0 -- -- 95
2020-07-07 21:00:00 17.2 9 Norte 14 Norte 0 -- -- 90
2020-07-07 20:00:00 19 12 Norte 21 Norte 0 -- -- 84
2020-07-07 19:00:00 19.8 14 Norte 24 Norte 0 -- -- 81
2020-07-07 18:00:00 20.1 21 Norte 29 Noroeste 0 -- -- 81
2020-07-07 17:00:00 20.7 19 Norte 30 Norte 0 -- -- 80
2020-07-07 16:00:00 20.4 19 Norte 28 Norte 0 -- -- 80
2020-07-07 15:00:00 20 20 Norte 29 Noroeste 0 -- -- 82
2020-07-07 14:00:00 19 16 Norte 24 Norte 0 -- -- 86
2020-07-07 13:00:00 17.6 15 Norte 23 Norte 0 -- -- 90
2020-07-07 12:00:00 16.8 11 Norte 18 Norte 0 -- -- 95
2020-07-07 11:00:00 15.5 12 Norte 21 Norte 0 -- -- 99
2020-07-07 10:00:00 14.9 15 Norte 22 Noroeste 0 -- -- 100
2020-07-07 09:00:00 14.3 13 Norte 21 Norte 0 -- -- 100
2020-07-07 08:00:00 13.9 13 Norte 19 Norte 0 -- -- 100
2020-07-07 07:00:00 13.8 13 Norte 23 Norte 0 -- -- 100
2020-07-07 06:00:00 13.9 14 Norte 26 Norte 0 -- -- 100
2020-07-07 05:00:00 14 19 Norte 32 Norte 0 -- -- 100
2020-07-07 04:00:00 14 22 Norte 36 Norte 0 -- -- 100
2020-07-07 03:00:00 14.2 24 Norte 36 Norte 0 -- -- 100
2020-07-07 02:00:00 14.3 24 Norte 35 Norte 0 -- -- 100
2020-07-07 01:00:00 14.3 23 Norte 32 Norte 0 -- -- 100
2020-07-07 00:00:00 14.4 22 Norte 36 Norte 0 -- -- 100
2020-07-06 23:00:00 14.4 23 Norte 36 Norte 0 -- -- 100
2020-07-06 22:00:00 14.4 24 Norte 37 Norte 0 -- -- 100
2020-07-06 21:00:00 14.6 26 Norte 45 Norte 0 -- -- 100
2020-07-06 20:00:00 14.9 26 Norte 36 Norte 0 -- -- 100
2020-07-06 19:00:00 14.9 23 Norte 39 Norte 0 -- -- 100
2020-07-06 18:00:00 14.9 23 Norte 36 Norte 0 -- -- 100
2020-07-06 17:00:00 14.6 27 Norte 37 Norte 0 -- -- 100
2020-07-06 16:00:00 14.6 26 Norte 37 Norte 0 -- -- 100
2020-07-06 15:00:00 14.4 25 Norte 41 Norte 0 -- -- 100
2020-07-06 14:00:00 14.6 27 Norte 42 Norte 0 -- -- 100
2020-07-06 13:00:00 14.5 27 Norte 44 Norte 0 -- -- 100
2020-07-06 12:00:00 14.7 22 Norte 40 Norte 0 -- -- 100
2020-07-06 11:00:00 14.6 26 Norte 40 Norte 0.2 -- -- 100
2020-07-06 10:00:00 14.9 29 Norte 39 Norte 0.2 -- -- 100
2020-07-06 09:00:00 14.9 22 Norte 32 Norte 0.8 -- -- 100
2020-07-06 08:00:00 15.4 19 Norte 28 Noroeste 0 -- -- 100
2020-07-06 07:00:00 15.3 21 Norte 31 Norte 0.2 -- -- 100
2020-07-06 06:00:00 15.4 17 Norte 27 Norte 0.2 -- -- 100
2020-07-06 05:00:00 15.4 20 Norte 27 Norte 0.6 -- -- 100
2020-07-06 04:00:00 15.6 18 Norte 24 Norte 0.6 -- -- 100
2020-07-06 03:00:00 15.5 17 Norte 25 Norte 0.6 -- -- 100
2020-07-06 02:00:00 15.6 16 Norte 23 Norte 0.4 -- -- 100
2020-07-06 01:00:00 15.5 15 Norte 20 Norte 0 -- -- 100
2020-07-06 00:00:00 15.7 13 Norte 23 Norte 0.4 -- -- 100
2020-07-05 23:00:00 15.8 16 Norte 23 Norte 0.2 -- -- 100
2020-07-05 22:00:00 15.9 17 Norte 24 Norte 0 -- -- 100
2020-07-05 21:00:00 16.1 17 Norte 23 Norte 0 -- -- 100
2020-07-05 20:00:00 16.4 14 Norte 22 Norte 0 -- -- 100
2020-07-05 19:00:00 16.6 17 Norte 23 Norte 0 -- -- 100
2020-07-05 18:00:00 17 15 Norte 20 Norte 0 -- -- 100
2020-07-05 17:00:00 16.9 14 Norte 24 Norte 0 -- -- 100
2020-07-05 16:00:00 17.3 19 Norte 27 Norte 0 -- -- 98
2020-07-05 15:00:00 17.9 22 Norte 30 Norte 0 -- -- 95
2020-07-05 14:00:00 20.9 17 Norte 23 Norte 0 -- -- 92
2020-07-05 13:00:00 19.3 11 Noroeste 15 Norte 0 -- -- 99
2020-07-05 12:00:00 17.7 6 Norte 9 Norte 0 -- -- 100
2020-07-05 11:00:00 16.6 4 Norte 12 Norte 0 -- -- 100
2020-07-05 10:00:00 15.9 10 Norte 12 Norte 0 -- -- 100
2020-07-05 09:00:00 15.8 2 Sudeste 5 Norte 0 -- -- 100
2020-07-05 08:00:00 15.2 0 Calma 4 Sur 0 -- -- 100
2020-07-05 07:00:00 14.1 0 Calma 4 Noroeste 0 -- -- 100
2020-07-05 06:00:00 14 3 Sur 5 Sur 0 -- -- 100
2020-07-05 05:00:00 14.3 0 Calma 4 Sur 0 -- -- 100
2020-07-05 04:00:00 14.5 0 Calma 5 Sur 0 -- -- 100
2020-07-05 03:00:00 14.6 5 Sur 8 Sur 0 -- -- 100
2020-07-05 02:00:00 14.7 5 Sur 6 Sur 0 -- -- 99
2020-07-05 01:00:00 14.8 3 Sur 8 Sur 0 -- -- 99
2020-07-05 00:00:00 15.3 2 Sur 3 Sur 0 -- -- 98
2020-07-04 23:00:00 15.8 0 Calma 9 Norte 0 -- -- 97
2020-07-04 22:00:00 16.8 9 Norte 14 Norte 0 -- -- 94
2020-07-04 21:00:00 17.5 12 Norte 22 Norte 0 -- -- 92
2020-07-04 20:00:00 17.4 17 Norte 22 Norte 0 -- -- 89
2020-07-04 19:00:00 19.3 16 Norte 23 Norte 0 -- -- 83
2020-07-04 18:00:00 19.6 20 Norte 26 Norte 0 -- -- 79
2020-07-04 17:00:00 20.6 22 Norte 27 Norte 0 -- -- 74
2020-07-04 16:00:00 22 18 Norte 23 Norte 0 -- -- 61
2020-07-04 15:00:00 23 14 Norte 22 Norte 0 -- -- 67
2020-07-04 14:00:00 21.3 13 Norte 20 Norte 0 -- -- 69
2020-07-04 13:00:00 20.6 11 Norte 16 Norte 0 -- -- 68
2020-07-04 12:00:00 19.3 12 Norte 21 Norte 0 -- -- 73
2020-07-04 11:00:00 19.1 8 Norte 14 Sur 0 -- -- 70
2020-07-04 10:00:00 15.7 10 Sur 15 Sur 0 -- -- 78
2020-07-04 09:00:00 12.8 10 Sur 15 Sur 0 -- -- 87
2020-07-04 08:00:00 10.5 10 Sur 14 Sudoeste 0 -- -- 98
2020-07-04 07:00:00 10.4 9 Sur 13 Sur 0 -- -- 100
2020-07-04 06:00:00 10.1 7 Sur 13 Sudoeste 0 -- -- 100
2020-07-04 05:00:00 10.2 4 Sur 8 Sur 0 -- -- 100
2020-07-04 04:00:00 10.3 5 Sur 8 Sur 0 -- -- 100
2020-07-04 03:00:00 10.5 5 Sur 9 Sudoeste 0 -- -- 100
2020-07-04 02:00:00 10.9 2 Sur 7 Sur 0 -- -- 99
2020-07-04 01:00:00 11.3 0 Calma 5 Sur 0 -- -- 98
2020-07-04 00:00:00 11.7 3 Sur 5 Sudoeste 0 -- -- 96
2020-07-03 23:00:00 12.6 3 Norte 10 Norte 0 -- -- 93
2020-07-03 22:00:00 14.6 11 Norte 20 Norte 0 -- -- 88
2020-07-03 21:00:00 15.6 9 Norte 19 Norte 0 -- -- 84
2020-07-03 20:00:00 16 14 Norte 25 Norte 0 -- -- 84
2020-07-03 19:00:00 15.9 18 Norte 26 Norte 0 -- -- 85
2020-07-03 18:00:00 16.7 20 Norte 28 Norte 0 -- -- 82
2020-07-03 17:00:00 16.9 17 Norte 27 Norte 0 -- -- 80
2020-07-03 16:00:00 16.6 20 Norte 30 Norte 0 -- -- 80
2020-07-03 15:00:00 17.6 19 Norte 30 Norte 0 -- -- 80
2020-07-03 14:00:00 17.4 21 Norte 28 Norte 0 -- -- 80
2020-07-03 13:00:00 16.3 16 Norte 24 Nordeste 0 -- -- 81
2020-07-03 12:00:00 16.4 13 Norte 20 Norte 0 -- -- 81
2020-07-03 11:00:00 14.9 13 Norte 20 Norte 0 -- -- 87
2020-07-03 10:00:00 14.5 10 Norte 16 Norte 0 -- -- 93
2020-07-03 09:00:00 12.8 4 Norte 7 Norte 0 -- -- 100
2020-07-03 08:00:00 9.6 3 Sur 5 Sur 0 -- -- 100
2020-07-03 07:00:00 9.1 3 Sur 4 Sur 0 -- -- 100
2020-07-03 06:00:00 9.6 0 Calma 5 Sur 0 -- -- 99
2020-07-03 05:00:00 9.8 3 Sur 4 Sur 0 -- -- 98
2020-07-03 04:00:00 10.4 0 Calma 3 Oeste 0 -- -- 97
2020-07-03 03:00:00 10.3 0 Calma 2 Nordeste 0 -- -- 96
2020-07-03 02:00:00 11 0 Calma 3 Oeste 0 -- -- 94
2020-07-03 01:00:00 12.1 0 Calma 2 Oeste 0 -- -- 93
2020-07-03 00:00:00 12.6 0 Calma 4 Noroeste 0 -- -- 93
2020-07-02 23:00:00 13 3 Norte 14 Norte 0 -- -- 92
2020-07-02 22:00:00 13.5 10 Norte 15 Norte 0 -- -- 89
2020-07-02 21:00:00 14.1 13 Norte 20 Nordeste 0 -- -- 87
2020-07-02 20:00:00 14.8 14 Norte 20 Norte 0 -- -- 85
2020-07-02 19:00:00 15.2 13 Norte 19 Norte 0 -- -- 83
2020-07-02 18:00:00 15.3 14 Norte 19 Norte 0 -- -- 87
2020-07-02 17:00:00 14.6 8 Norte 15 Norte 0 -- -- 93
2020-07-02 16:00:00 13.6 12 Norte 22 Norte 0 -- -- 96
2020-07-02 15:00:00 13.7 17 Norte 27 Norte 0 -- -- 94
2020-07-02 14:00:00 15.7 4 Nordeste 11 Sudoeste 0 -- -- 91
2020-07-02 13:00:00 13.8 6 Sur 10 Sur 0 -- -- 98
2020-07-02 12:00:00 12.9 4 Este 18 Nordeste 4 -- -- 98
2020-07-02 11:00:00 14.7 10 Norte 18 Norte 0 -- -- 95
2020-07-02 10:00:00 14.3 4 Sur 8 Sudeste 0 -- -- 98
2020-07-02 09:00:00 13.2 3 Sur 9 Sur 0 -- -- 100
2020-07-02 08:00:00 12.6 5 Sur 12 Sur 0 -- -- 100
2020-07-02 07:00:00 12.3 5 Sur 9 Sur 0 -- -- 100
2020-07-02 06:00:00 12.6 4 Sur 7 Sur 0 -- -- 100
2020-07-02 05:00:00 12.8 0 Calma 7 Sur 0 -- -- 100
2020-07-02 04:00:00 13.1 3 Sur 5 Sur 0 -- -- 100
2020-07-02 03:00:00 13.1 0 Calma 4 Sudeste 0 -- -- 100
2020-07-02 02:00:00 13.5 0 Calma 8 Noroeste 0 -- -- 100
2020-07-02 01:00:00 13.6 6 Norte 13 Noroeste 0.2 -- -- 100
2020-07-02 00:00:00 13.6 9 Norte 14 Norte 0.2 -- -- 100
2020-07-01 23:00:00 13.8 10 Norte 17 Norte 0 -- -- 100
2020-07-01 22:00:00 14.2 14 Norte 19 Norte 0 -- -- 99
2020-07-01 21:00:00 14.5 12 Norte 22 Norte 0 -- -- 97
2020-07-01 20:00:00 15 14 Norte 25 Norte 0 -- -- 96
2020-07-01 19:00:00 15.9 18 Norte 27 Norte 0 -- -- 93
2020-07-01 18:00:00 17.2 18 Norte 25 Norte 0 -- -- 92
2020-07-01 17:00:00 17.3 13 Norte 18 Norte 0 -- -- 96
2020-07-01 16:00:00 17.4 14 Norte 18 Norte 0 -- -- 96
2020-07-01 15:00:00 17.1 5 Norte 9 Norte 0 -- -- 99
2020-07-01 14:00:00 15.5 5 Norte 15 Norte 0 -- -- 100
2020-07-01 13:00:00 15.7 13 Norte 19 Norte 0 -- -- 97
2020-07-01 12:00:00 18.4 9 Noroeste 24 Sudoeste 0 -- -- 86
2020-07-01 11:00:00 18.9 14 Sur 21 Sur 0 -- -- 84
2020-07-01 10:00:00 18.4 10 Sur 20 Sur 0 -- -- 87
2020-07-01 09:00:00 17 13 Sur 24 Sur 0 -- -- 94
2020-07-01 08:00:00 16.4 14 Sur 25 Sur 0 -- -- 97
2020-07-01 07:00:00 15.8 13 Sur 25 Sudoeste 0 -- -- 98
2020-07-01 06:00:00 15.8 4 Sur 9 Sudoeste 0 -- -- 98
2020-07-01 05:00:00 15.6 6 Sur 9 Sur 0 -- -- 98
2020-07-01 04:00:00 15.5 2 Este 9 Sur 0 -- -- 97
2020-07-01 03:00:00 15 5 Sur 7 Sur 0 -- -- 97
2020-07-01 02:00:00 15.1 4 Sur 9 Sudeste 0 -- -- 97
2020-07-01 01:00:00 15.1 6 Sur 9 Sur 0 -- -- 95
2020-07-01 00:00:00 15.2 3 Sur 6 Sur 0 -- -- 93
2020-06-30 23:00:00 15.1 3 Sur 5 Sur 0 -- -- 91
2020-06-30 22:00:00 15.8 0 Calma 14 Norte 0 -- -- 87
2020-06-30 21:00:00 17.3 12 Norte 18 Norte 0 -- -- 83
2020-06-30 20:00:00 20.8 13 Norte 23 Norte 0 -- -- 80
2020-06-30 19:00:00 21.2 19 Norte 25 Norte 0 -- -- 78
2020-06-30 18:00:00 22.2 18 Norte 27 Norte 0 -- -- 76
2020-06-30 17:00:00 21.7 21 Norte 26 Norte 0 -- -- 76
2020-06-30 16:00:00 21.8 18 Norte 24 Norte 0 -- -- 74
2020-06-30 15:00:00 21.4 20 Norte 24 Norte 0 -- -- 75
2020-06-30 14:00:00 21.1 18 Norte 23 Norte 0 -- -- 76
2020-06-30 13:00:00 20.9 17 Norte 22 Norte 0 -- -- 74
2020-06-30 12:00:00 20.2 12 Norte 16 Nordeste 0 -- -- 70
2020-06-30 11:00:00 18.9 9 Norte 15 Norte 0 -- -- 69
2020-06-30 10:00:00 17.8 8 Norte 10 Norte 0 -- -- 71
2020-06-30 09:00:00 15.5 3 Sur 5 Sur 0 -- -- 80
2020-06-30 08:00:00 12.7 3 Sur 4 Sur 0 -- -- 84
2020-06-30 07:00:00 11.9 3 Sur 6 Sur 0 -- -- 83
2020-06-30 06:00:00 12.4 0 Calma 6 Sur 0 -- -- 80
2020-06-30 05:00:00 12.8 2 Sur 6 Sur 0 -- -- 82
2020-06-30 04:00:00 12.1 5 Sur 8 Sur 0 -- -- 91
2020-06-30 03:00:00 11.8 6 Sur 8 Sur 0 -- -- 94
2020-06-30 02:00:00 12.2 4 Sur 5 Sur 0 -- -- 99
2020-06-30 01:00:00 13 3 Sudoeste 4 Sudoeste 0 -- -- 99
2020-06-30 00:00:00 13.4 2 Nordeste 6 Norte 0 -- -- 98
2020-06-29 23:00:00 13.7 4 Norte 8 Norte 0 -- -- 97
2020-06-29 22:00:00 14.7 5 Norte 10 Norte 0 -- -- 93
2020-06-29 21:00:00 16.1 9 Norte 18 Norte 0 -- -- 86
2020-06-29 20:00:00 18.3 15 Norte 19 Norte 0 -- -- 85
2020-06-29 19:00:00 18.9 13 Norte 20 Norte 0 -- -- 81
2020-06-29 18:00:00 19.1 14 Norte 20 Norte 0 -- -- 89
2020-06-29 17:00:00 18.8 16 Norte 22 Norte 0 -- -- 90
2020-06-29 16:00:00 18.8 12 Norte 19 Norte 0 -- -- 95
2020-06-29 15:00:00 17.3 9 Norte 15 Norte 0 -- -- 100
2020-06-29 14:00:00 16.6 9 Norte 14 Norte 0 -- -- 100
2020-06-29 13:00:00 14.7 11 Norte 18 Norte 0.2 -- -- 100
2020-06-29 12:00:00 15.1 12 Norte 20 Norte 0 -- -- 100
2020-06-29 11:00:00 14 14 Norte 21 Norte 0.2 -- -- 100
2020-06-29 10:00:00 13.5 15 Norte 21 Norte 0.6 -- -- 100
2020-06-29 09:00:00 14.2 11 Norte 14 Norte 0.6 -- -- 100
2020-06-29 08:00:00 14.2 5 Norte 7 Norte 0 -- -- 100
2020-06-29 07:00:00 14 3 Norte 4 Norte 0 -- -- 100
2020-06-29 06:00:00 14.1 2 Norte 5 Norte 0 -- -- 100
2020-06-29 05:00:00 14.1 2 Sur 3 Sur 0 -- -- 100
2020-06-29 04:00:00 14.1 2 Noroeste 8 Norte 0.2 -- -- 100
2020-06-29 03:00:00 14.1 3 Nordeste 4 Norte 0.2 -- -- 100
2020-06-29 02:00:00 14.1 4 Noroeste 8 Norte 0.2 -- -- 100
2020-06-29 01:00:00 14.2 7 Norte 12 Norte 0 -- -- 100
2020-06-29 00:00:00 14.4 9 Norte 13 Norte 0.6 -- -- 100
2020-06-28 23:00:00 14.7 5 Norte 9 Norte 0.4 -- -- 100
2020-06-28 22:00:00 14.6 9 Norte 20 Norte 1 -- -- 100
2020-06-28 21:00:00 15.3 13 Norte 21 Norte 1.4 -- -- 100
2020-06-28 20:00:00 16 13 Norte 19 Norte 0.8 -- -- 100
2020-06-28 19:00:00 16.7 10 Norte 18 Norte 0.4 -- -- 100
2020-06-28 18:00:00 17.7 13 Norte 24 Norte 0.2 -- -- 97
2020-06-28 17:00:00 19 16 Norte 21 Norte 0 -- -- 92
2020-06-28 16:00:00 20.3 7 Sur 23 Sur 0 -- -- 87
2020-06-28 15:00:00 21.9 15 Sur 34 Sur 0 -- -- 78
2020-06-28 14:00:00 21.4 22 Sur 33 Sur 0 -- -- 79
2020-06-28 13:00:00 20.4 15 Sur 30 Sur 0 -- -- 82
2020-06-28 12:00:00 19.6 17 Sur 31 Sur 0 -- -- 83
2020-06-28 11:00:00 19.5 17 Sur 32 Sur 0 -- -- 82
2020-06-28 10:00:00 17.6 19 Sur 32 Sur 0 -- -- 87
2020-06-28 09:00:00 17.3 22 Sur 36 Sur 0 -- -- 83
2020-06-28 08:00:00 16.9 19 Sur 33 Sur 0 -- -- 82
2020-06-28 07:00:00 16.6 18 Sur 40 Sur 0 -- -- 82
2020-06-28 06:00:00 16.4 23 Sur 36 Sudeste 0 -- -- 82
2020-06-28 05:00:00 16 16 Sur 37 Sur 0 -- -- 84
2020-06-28 04:00:00 15.8 17 Sur 38 Sur 0 -- -- 87
2020-06-28 03:00:00 15.9 15 Sur 27 Sudeste 0 -- -- 88
2020-06-28 02:00:00 16 15 Sur 29 Sur 0 -- -- 94
2020-06-28 01:00:00 15.1 6 Sur 14 Sur 0 -- -- 99
2020-06-28 00:00:00 14.5 5 Sur 10 Sudeste 0 -- -- 98
2020-06-27 23:00:00 15.2 0 Calma 6 Norte 0 -- -- 96
2020-06-27 22:00:00 15.8 5 Norte 10 Norte 0 -- -- 95
2020-06-27 21:00:00 17.5 5 Norte 15 Norte 0 -- -- 89
2020-06-27 20:00:00 20.5 7 Norte 34 Sur 0 -- -- 78
2020-06-27 19:00:00 22.2 13 Sur 31 Sur 0 -- -- 73
2020-06-27 18:00:00 21.7 15 Sur 43 Sur 0 -- -- 77
2020-06-27 17:00:00 21.5 21 Sur 45 Sur 0 -- -- 78
2020-06-27 16:00:00 21.3 24 Sur 42 Sur 0 -- -- 84
2020-06-27 15:00:00 20.8 19 Sur 37 Sur 0 -- -- 86
2020-06-27 14:00:00 20.5 24 Sur 42 Sur 0 -- -- 82
2020-06-27 13:00:00 21 26 Sur 44 Sur 0 -- -- 77
2020-06-27 12:00:00 20.2 30 Sur 49 Sur 0 -- -- 79
2020-06-27 11:00:00 19.8 27 Sur 47 Sur 0 -- -- 79
2020-06-27 10:00:00 18.8 24 Sur 50 Sur 0 -- -- 81
2020-06-27 09:00:00 18.5 26 Sur 49 Sur 0 -- -- 81
2020-06-27 08:00:00 17.9 25 Sur 45 Sur 0 -- -- 83
2020-06-27 07:00:00 17.7 30 Sur 49 Sur 0 -- -- 83
2020-06-27 06:00:00 17.9 30 Sur 48 Sur 0 -- -- 82
2020-06-27 05:00:00 17.9 23 Sur 46 Sur 0 -- -- 83
2020-06-27 04:00:00 18.1 21 Sur 44 Sur 0 -- -- 81
2020-06-27 03:00:00 18 35 Sur 58 Sur 0 -- -- 82
2020-06-27 02:00:00 18.1 28 Sur 46 Sur 0 -- -- 81
2020-06-27 01:00:00 18.2 27 Sur 57 Sur 0 -- -- 82
2020-06-27 00:00:00 18.1 20 Sur 39 Sur 0 -- -- 87
2020-06-26 23:00:00 18.2 22 Sur 35 Sur 0 -- -- 87
2020-06-26 22:00:00 18.4 18 Sur 30 Sur 0 -- -- 88
2020-06-26 21:00:00 18.3 18 Sur 35 Sur 0 -- -- 91
2020-06-26 20:00:00 18 22 Sur 43 Sur 0 -- -- 89
2020-06-26 19:00:00 20.6 15 Sur 31 Sur 0 -- -- 75
2020-06-26 18:00:00 21.4 17 Sur 32 Sur 0 -- -- 68
2020-06-26 17:00:00 22.8 20 Sur 37 Sur 0 -- -- 62
2020-06-26 16:00:00 21.9 22 Sur 35 Sur 0 -- -- 63
2020-06-26 15:00:00 22.8 23 Sur 44 Sur 0 -- -- 60
2020-06-26 14:00:00 21.3 19 Sur 38 Sur 0 -- -- 64
2020-06-26 13:00:00 19.2 24 Sur 38 Sur 0 -- -- 75
2020-06-26 12:00:00 18.3 18 Sur 39 Sur 0 -- -- 80
2020-06-26 11:00:00 17.7 22 Sur 34 Sur 0 -- -- 89
2020-06-26 10:00:00 15.4 13 Sur 27 Sur 0 -- -- 99
2020-06-26 09:00:00 14.8 8 Sur 16 Sudoeste 0 -- -- 100
2020-06-26 08:00:00 13.2 5 Sur 8 Sur 0 -- -- 100
2020-06-26 07:00:00 13.8 3 Sur 6 Sur 0 -- -- 100
2020-06-26 06:00:00 13.8 0 Calma 6 Sur 0 -- -- 100
2020-06-26 05:00:00 13.8 3 Sur 6 Sur 0 -- -- 100
2020-06-26 04:00:00 13.9 0 Calma 4 Sur 0 -- -- 100
2020-06-26 03:00:00 13.9 2 Sur 5 Sur 0 -- -- 100
2020-06-26 02:00:00 13.9 2 Norte 10 Noroeste 0 -- -- 100
2020-06-26 01:00:00 13.9 4 Norte 6 Norte 0 -- -- 100
2020-06-26 00:00:00 14 3 Norte 7 Nordeste 0.2 -- -- 100
2020-06-25 23:00:00 14 4 Nordeste 6 Nordeste 0 -- -- 100
2020-06-25 22:00:00 14.1 4 Norte 11 Norte 0 -- -- 100
2020-06-25 21:00:00 14.4 6 Norte 13 Norte 0 -- -- 100
2020-06-25 20:00:00 14.6 8 Norte 18 Norte 0 -- -- 99
2020-06-25 19:00:00 14.9 13 Norte 20 Norte 0 -- -- 97
2020-06-25 18:00:00 15.3 15 Norte 24 Norte 0 -- -- 96
2020-06-25 17:00:00 16.8 15 Norte 21 Norte 0 -- -- 96
2020-06-25 16:00:00 15.9 13 Norte 18 Norte 0 -- -- 98
2020-06-25 15:00:00 15.6 10 Norte 17 Norte 0 -- -- 99
2020-06-25 14:00:00 15.8 11 Norte 16 Norte 0 -- -- 99
2020-06-25 13:00:00 15.7 9 Norte 17 Norte 0 -- -- 99
2020-06-25 12:00:00 15.4 16 Norte 21 Norte 0 -- -- 99
2020-06-25 11:00:00 15.9 12 Norte 15 Norte 0 -- -- 100
2020-06-25 10:00:00 15.2 0 Calma 5 Sudoeste 0 -- -- 100
2020-06-25 09:00:00 14.7 4 Sur 6 Sur 0 -- -- 100
2020-06-25 08:00:00 14.8 0 Calma 5 Norte 0 -- -- 100
2020-06-25 07:00:00 14.6 2 Norte 6 Norte 0 -- -- 100
2020-06-25 06:00:00 14.7 4 Norte 12 Norte 0 -- -- 100
2020-06-25 05:00:00 14.7 8 Norte 12 Norte 0 -- -- 100
2020-06-25 04:00:00 14.7 6 Norte 12 Norte 0 -- -- 100
2020-06-25 03:00:00 14.2 9 Norte 13 Norte 0 -- -- 100
2020-06-25 02:00:00 14.3 3 Norte 8 Noroeste 0 -- -- 100
2020-06-25 01:00:00 15.3 6 Norte 18 Norte 0 -- -- 100
2020-06-25 00:00:00 15.4 14 Norte 20 Norte 0 -- -- 99
2020-06-24 23:00:00 15.7 10 Norte 13 Norte 0 -- -- 98
2020-06-24 22:00:00 17.3 9 Norte 14 Norte 0 -- -- 94
2020-06-24 21:00:00 17.5 2 Sudeste 14 Norte 0 -- -- 93
2020-06-24 20:00:00 17.4 14 Norte 21 Norte 0 -- -- 92
2020-06-24 19:00:00 19.2 18 Norte 24 Norte 0 -- -- 87
2020-06-24 18:00:00 20.5 17 Norte 24 Norte 0 -- -- 84
2020-06-24 17:00:00 20.7 19 Norte 28 Norte 0 -- -- 88
2020-06-24 16:00:00 20.7 18 Norte 25 Norte 0 -- -- 92
2020-06-24 15:00:00 21.4 17 Norte 22 Norte 0 -- -- 96
2020-06-24 14:00:00 20.3 10 Norte 17 Norte 0 -- -- 100
2020-06-24 13:00:00 17.6 3 Norte 8 Norte 0 -- -- 100
2020-06-24 12:00:00 17 6 Norte 10 Norte 0 -- -- 100
2020-06-24 11:00:00 16.5 5 Norte 8 Norte 0 -- -- 100
2020-06-24 10:00:00 16 4 Norte 6 Norte 0 -- -- 100
2020-06-24 09:00:00 15.7 6 Norte 9 Norte 0 -- -- 100
2020-06-24 08:00:00 15.5 6 Norte 12 Norte 0 -- -- 100
2020-06-24 07:00:00 15.6 6 Norte 10 Norte 0.2 -- -- 100
2020-06-24 06:00:00 15.8 8 Norte 10 Norte 0 -- -- 100
2020-06-24 05:00:00 16 4 Noroeste 8 Norte 0 -- -- 100
2020-06-24 04:00:00 16 3 Noroeste 9 Norte 0.2 -- -- 100
2020-06-24 03:00:00 16 0 Calma 4 Nordeste 0 -- -- 100
2020-06-24 02:00:00 16.2 0 Calma 6 Norte 0 -- -- 100
2020-06-24 01:00:00 16.1 4 Norte 6 Norte 0 -- -- 100
2020-06-24 00:00:00 16.1 0 Calma 6 Sur 0 -- -- 100
2020-06-23 23:00:00 16.6 0 Calma 5 Sur 0 -- -- 99
2020-06-23 22:00:00 17.6 0 Calma 6 Norte 0 -- -- 97
2020-06-23 21:00:00 19.1 4 Norte 8 Norte 0 -- -- 91
2020-06-23 20:00:00 21.2 6 Norte 13 Norte 0 -- -- 88
2020-06-23 19:00:00 22.8 8 Norte 13 Norte 0 -- -- 84
2020-06-23 18:00:00 24.3 7 Norte 15 Norte 0 -- -- 82
2020-06-23 17:00:00 24.8 10 Norte 15 Norte 0 -- -- 81
2020-06-23 16:00:00 24.6 10 Norte 15 Noroeste 0 -- -- 81
2020-06-23 15:00:00 24.3 10 Norte 14 Norte 0 -- -- 83
2020-06-23 14:00:00 23.9 10 Norte 14 Norte 0 -- -- 84
2020-06-23 13:00:00 23 9 Norte 13 Norte 0 -- -- 88
2020-06-23 12:00:00 21.8 8 Norte 11 Norte 0 -- -- 95
2020-06-23 11:00:00 19.7 7 Norte 9 Norte 0 -- -- 100
2020-06-23 10:00:00 17.1 2 Sudeste 6 Sudeste 0 -- -- 100
2020-06-23 09:00:00 15 0 Calma 6 Nordeste 0 -- -- 100
2020-06-23 08:00:00 14.4 7 Sur 10 Sudeste 0 -- -- 100
2020-06-23 07:00:00 14.5 2 Sudoeste 9 Sudeste 0.2 -- -- 100
2020-06-23 06:00:00 14.9 8 Sur 10 Sudeste 0 -- -- 100
2020-06-23 05:00:00 15.3 2 Sudeste 8 Sur 0 -- -- 100
2020-06-23 04:00:00 15.6 4 Sur 8 Sur 0 -- -- 100
2020-06-23 03:00:00 15.7 0 Calma 5 Sur 0 -- -- 100
2020-06-23 02:00:00 16 0 Calma 4 Noroeste 0 -- -- 100
2020-06-23 01:00:00 16.1 3 Sur 5 Sur 0 -- -- 100
2020-06-23 00:00:00 16.4 3 Sur 8 Sur 0 -- -- 100
2020-06-22 23:00:00 16.7 4 Sur 6 Sur 0 -- -- 100
2020-06-22 22:00:00 16.9 2 Sur 7 Norte 0 -- -- 99
2020-06-22 21:00:00 17.4 6 Norte 10 Norte 0 -- -- 97
2020-06-22 20:00:00 18.3 8 Norte 16 Norte 0 -- -- 95
2020-06-22 19:00:00 19.6 13 Norte 19 Norte 0 -- -- 92
2020-06-22 18:00:00 20.6 15 Norte 22 Norte 0 -- -- 88
2020-06-22 17:00:00 21.7 15 Norte 23 Norte 0 -- -- 86
2020-06-22 16:00:00 21.7 17 Norte 25 Norte 0 -- -- 86
2020-06-22 15:00:00 21 18 Norte 23 Norte 0 -- -- 89
2020-06-22 14:00:00 21.2 14 Norte 19 Norte 0 -- -- 86
2020-06-22 13:00:00 20.8 11 Norte 15 Norte 0 -- -- 85
2020-06-22 12:00:00 19.7 10 Norte 14 Norte 0 -- -- 88
2020-06-22 11:00:00 18.2 7 Norte 10 Norte 0 -- -- 93
2020-06-22 10:00:00 16 4 Sur 6 Sur 0 -- -- 99
2020-06-22 09:00:00 13.7 6 Sur -- -- 0 -- -- 100
2020-06-22 08:00:00 12 0 Calma 3 Sur 0 -- -- 100
2020-06-22 07:00:00 11.7 0 Calma 6 Sur 0 -- -- 100
2020-06-22 06:00:00 11.9 4 Sur 6 Sur 0 -- -- 100
2020-06-22 05:00:00 12.1 2 Sur 4 Sudoeste 0 -- -- 100
2020-06-22 04:00:00 12.3 4 Sur 7 Sur 0 -- -- 100
2020-06-22 03:00:00 12.5 4 Sur 5 Sur 0 -- -- 100
2020-06-22 02:00:00 12.8 0 Calma 5 Sur 0 -- -- 100
2020-06-22 01:00:00 13.1 4 Sur 6 Sur 0 -- -- 99
2020-06-22 00:00:00 13.8 2 Sur 4 Norte 0 -- -- 97
2020-06-21 23:00:00 14.7 4 Norte 8 Norte 0 -- -- 96
2020-06-21 22:00:00 15.4 8 Norte 16 Norte 0 -- -- 93
2020-06-21 21:00:00 15.7 14 Norte 21 Norte 0 -- -- 88
2020-06-21 20:00:00 16 17 Norte 30 Norte 0 -- -- 91
2020-06-21 19:00:00 17.2 23 Norte 29 Norte 0 -- -- 87
2020-06-21 18:00:00 19 19 Norte 26 Norte 0 -- -- 89
2020-06-21 17:00:00 19.6 14 Norte 27 Norte 0 -- -- 89
2020-06-21 16:00:00 21.6 13 Sur 34 Sur 0 -- -- 75
2020-06-21 15:00:00 21.6 18 Sur 35 Sur 0 -- -- 73
2020-06-21 14:00:00 20.5 19 Sur 32 Sur 0 -- -- 75
2020-06-21 13:00:00 20.4 18 Sur 33 Sur 0 -- -- 74
2020-06-21 12:00:00 20.7 24 Sur 45 Sur 0 -- -- 72
2020-06-21 11:00:00 18.3 24 Sur 44 Sur 0 -- -- 79
2020-06-21 10:00:00 17.4 20 Sur 41 Sur 0 -- -- 81
2020-06-21 09:00:00 17.1 19 Sur 43 Sur 0 -- -- 81
2020-06-21 08:00:00 16.3 19 Sur 34 Sur 0 -- -- 82
2020-06-21 07:00:00 16.1 26 Sur 40 Sur 0 -- -- 82
2020-06-21 06:00:00 16.1 21 Sur 40 Sur 0 -- -- 83
2020-06-21 05:00:00 15.9 23 Sur 33 Sur 0 -- -- 85
2020-06-21 04:00:00 15.9 15 Sur 37 Sur 0 -- -- 84
2020-06-21 03:00:00 16 20 Sur 42 Sur 0 -- -- 85
2020-06-21 02:00:00 14.8 15 Sur 27 Sur 0 -- -- 85
2020-06-21 01:00:00 15.7 13 Sur 27 Sudeste 0 -- -- 78
2020-06-21 00:00:00 15.5 12 Sur 30 Sudeste 0 -- -- 81
2020-06-20 23:00:00 14.9 3 Sur 6 Sur 0 -- -- 92
2020-06-20 22:00:00 15.9 4 Sur 12 Sur 0 -- -- 89
2020-06-20 21:00:00 17.5 4 Sur 9 Norte 0 -- -- 83
2020-06-20 20:00:00 18.5 8 Norte 21 Norte 0 -- -- 81
2020-06-20 19:00:00 18.5 18 Norte 24 Norte 0 -- -- 80
2020-06-20 18:00:00 19.1 19 Norte 24 Norte 0 -- -- 79
2020-06-20 17:00:00 19.1 21 Norte 26 Norte 0 -- -- 77
2020-06-20 16:00:00 19.2 22 Norte 27 Norte 0 -- -- 77
2020-06-20 15:00:00 19.9 20 Norte 23 Norte 0 -- -- 75
2020-06-20 14:00:00 22.6 11 Sur 33 Sur 0 -- -- 63
2020-06-20 13:00:00 21.3 15 Sur 30 Sur 0 -- -- 65
2020-06-20 12:00:00 20.1 12 Sur 23 Sur 0 -- -- 71
2020-06-20 11:00:00 18.4 14 Sur 28 Sur 0 -- -- 77
2020-06-20 10:00:00 17.1 12 Sur 21 Sur 0 -- -- 82
2020-06-20 09:00:00 14.9 8 Sur 10 Sur 0 -- -- 97
2020-06-20 08:00:00 13.8 0 Calma 6 Sur 0 -- -- 98
2020-06-20 07:00:00 13.7 2 Sur 4 Norte 0 -- -- 97
2020-06-20 06:00:00 13.9 0 Calma 9 Sur 0 -- -- 97
2020-06-20 05:00:00 13.5 4 Sur 8 Sur 0 -- -- 97
2020-06-20 04:00:00 13.5 3 Sudoeste 7 Sur 0 -- -- 96
2020-06-20 03:00:00 13.6 4 Sur 9 Sur 0 -- -- 97
2020-06-20 02:00:00 13.2 6 Sur 9 Sur 0 -- -- 98
2020-06-20 01:00:00 12 4 Sur 8 Sudoeste 0 -- -- 97
2020-06-20 00:00:00 12.2 4 Sur 6 Sur 0 -- -- 95
2020-06-19 23:00:00 13.1 0 Calma 4 Sudeste 0 -- -- 92
2020-06-19 22:00:00 14.3 2 Norte 9 Norte 0 -- -- 90
2020-06-19 21:00:00 14.8 9 Norte 17 Norte 0 -- -- 86
2020-06-19 20:00:00 16.8 13 Norte 19 Norte 0 -- -- 83
2020-06-19 19:00:00 16.8 17 Norte 26 Norte 0 -- -- 81
2020-06-19 18:00:00 17 18 Norte 27 Norte 0 -- -- 82
2020-06-19 17:00:00 17.5 21 Norte 25 Norte 0 -- -- 81
2020-06-19 16:00:00 18 18 Norte 23 Norte 0 -- -- 80
2020-06-19 15:00:00 18.1 15 Norte 22 Norte 0 -- -- 77
2020-06-19 14:00:00 19.7 13 Norte 22 Sudoeste 0 -- -- 69
2020-06-19 13:00:00 18.9 10 Sur 20 Sur 0 -- -- 67
2020-06-19 12:00:00 17.8 9 Sudeste 19 Sudeste 0 -- -- 69
2020-06-19 11:00:00 16.2 7 Sur 13 Sur 0 -- -- 76
2020-06-19 10:00:00 14.5 7 Sur 10 Sur 0 -- -- 92
2020-06-19 09:00:00 11.7 6 Sur 13 Sur 0 -- -- 100
2020-06-19 08:00:00 9.7 9 Sur 15 Sur 0 -- -- 100
2020-06-19 07:00:00 9.5 7 Sur 13 Sur 0 -- -- 100
2020-06-19 06:00:00 9.3 5 Sur 10 Sur 0 -- -- 100
2020-06-19 05:00:00 9.6 6 Sur 9 Sur 0 -- -- 100
2020-06-19 04:00:00 10.1 5 Sur 8 Sur 0 -- -- 100
2020-06-19 03:00:00 10.2 4 Sudoeste 6 Sudoeste 0 -- -- 100
2020-06-19 02:00:00 10.4 0 Calma 4 Sur 0 -- -- 99
2020-06-19 01:00:00 11.4 2 Sur 4 Sur 0 -- -- 98
2020-06-19 00:00:00 12.3 0 Calma 7 Norte 0 -- -- 98
2020-06-18 23:00:00 13.1 4 Norte 11 Norte 0 -- -- 97
2020-06-18 22:00:00 13.3 10 Norte 17 Norte 0 -- -- 95
2020-06-18 21:00:00 13.9 12 Norte 19 Norte 0 -- -- 93
2020-06-18 20:00:00 14.8 14 Norte 24 Norte 0 -- -- 89
2020-06-18 19:00:00 15.7 18 Norte 28 Norte 0 -- -- 82
2020-06-18 18:00:00 16.3 18 Norte 26 Norte 0 -- -- 83
2020-06-18 17:00:00 15.4 18 Norte 26 Norte 0 -- -- 86
2020-06-18 16:00:00 16.4 19 Norte 29 Norte 0 -- -- 84
2020-06-18 15:00:00 16.6 22 Norte 33 Norte 0 -- -- 85
2020-06-18 14:00:00 17.8 18 Norte 27 Norte 0.2 -- -- 80
2020-06-18 13:00:00 16.4 8 Nordeste 14 Norte 0 -- -- 83
2020-06-18 12:00:00 15.4 3 Sudeste 10 Sur 0 -- -- 94
2020-06-18 11:00:00 13.9 7 Sur 11 Sur 0 -- -- 100
2020-06-18 10:00:00 10.9 6 Sur 17 Sur 0 -- -- 100
2020-06-18 09:00:00 9.9 10 Sur 14 Sur 0 -- -- 100
2020-06-18 08:00:00 8.7 6 Sur 9 Sur 0 -- -- 100
2020-06-18 07:00:00 9 5 Sur 12 Sur 0 -- -- 100
2020-06-18 06:00:00 9.5 6 Sur 9 Sudoeste 0 -- -- 100
2020-06-18 05:00:00 10.2 4 Sur 8 Sudoeste 0 -- -- 100
2020-06-18 04:00:00 10.7 3 Sur 5 Sur 0 -- -- 100
2020-06-18 03:00:00 11.3 0 Calma 2 Nordeste 0 -- -- 100
2020-06-18 02:00:00 11.3 0 Calma 4 Sur 0 -- -- 100
2020-06-18 01:00:00 11.2 0 Calma 4 Sur 0 -- -- 100
2020-06-18 00:00:00 11.5 3 Nordeste 6 Norte 0 -- -- 100
2020-06-17 23:00:00 11.9 4 Norte 8 Norte 0 -- -- 100
2020-06-17 22:00:00 12 6 Norte 8 Norte 0 -- -- 100
2020-06-17 21:00:00 12.4 6 Norte 8 Norte 0 -- -- 100
2020-06-17 20:00:00 12 2 Noroeste 10 Norte 0 -- -- 100
2020-06-17 19:00:00 12 6 Norte 14 Norte 2.2 -- -- 100
2020-06-17 18:00:00 12.5 11 Norte 15 Norte 0.2 -- -- 100
2020-06-17 17:00:00 12.3 10 Norte 19 Nordeste 1.8 -- -- 100
2020-06-17 16:00:00 13.1 14 Norte 18 Norte 0 -- -- 97
2020-06-17 15:00:00 14.4 12 Norte 15 Norte 0 -- -- 95
2020-06-17 14:00:00 14.1 8 Norte 15 Norte 0 -- -- 91
2020-06-17 13:00:00 14.6 6 Sur 14 Sur 0 -- -- 84
2020-06-17 12:00:00 15.2 9 Sur 18 Sur 0 -- -- 82
2020-06-17 11:00:00 14.6 15 Sur 21 Sur 0 -- -- 86
2020-06-17 10:00:00 13.8 9 Sur 17 Sur 0 -- -- 95
2020-06-17 09:00:00 12.5 8 Sur 15 Sur 0 -- -- 100
2020-06-17 08:00:00 11.7 8 Sur 14 Sur 0 -- -- 100
2020-06-17 07:00:00 11.4 6 Sur 13 Sur 0 -- -- 100
2020-06-17 06:00:00 11.4 7 Sur 14 Sur 0 -- -- 100
2020-06-17 05:00:00 11.4 5 Sur 10 Sudoeste 0 -- -- 100
2020-06-17 04:00:00 11.4 4 Sudoeste 9 Sur 0 -- -- 100
2020-06-17 03:00:00 11.6 8 Sur 13 Sur 0 -- -- 100
2020-06-17 02:00:00 11.7 7 Sur 12 Sur 0 -- -- 100
2020-06-17 01:00:00 11.9 6 Sur 12 Sur 0.4 -- -- 99
2020-06-17 00:00:00 12.3 4 Sudeste 9 Este 0.8 -- -- 98
2020-06-16 23:00:00 12.5 8 Sur 20 Nordeste 1 -- -- 96
2020-06-16 22:00:00 13.9 7 Norte 13 Noroeste 0 -- -- 89
2020-06-16 21:00:00 14.6 3 Sudoeste 6 Oeste 0 -- -- 86
2020-06-16 20:00:00 14.6 3 Norte 13 Sur 0 -- -- 91
2020-06-16 19:00:00 15.5 3 Nordeste 14 Sur 0 -- -- 87
2020-06-16 18:00:00 15.8 7 Sur 19 Sur 0 -- -- 83
2020-06-16 17:00:00 15.6 14 Sur 29 Sur 0 -- -- 81
2020-06-16 16:00:00 16 14 Sur 30 Sur 0 -- -- 83
2020-06-16 15:00:00 15.9 10 Sur 16 Sur 0 -- -- 87
2020-06-16 14:00:00 14.7 5 Sur 23 Sur 0 -- -- 87
2020-06-16 13:00:00 15.2 17 Sur 24 Sur 0 -- -- 86
2020-06-16 12:00:00 15.3 15 Sur 23 Sur 0 -- -- 91
2020-06-16 11:00:00 13.4 8 Sur 14 Sur 0 -- -- 99
2020-06-16 10:00:00 13 8 Sur 13 Sudeste 0 -- -- 100
2020-06-16 09:00:00 12.6 5 Sur 16 Sur 0.2 -- -- 100
2020-06-16 08:00:00 12.5 10 Sur 16 Sur 0.6 -- -- 100
2020-06-16 07:00:00 12.6 7 Sur 15 Sudeste 1.6 -- -- 100
2020-06-16 06:00:00 12.7 6 Sur 12 Sur 1 -- -- 99
2020-06-16 05:00:00 13 6 Sur 15 Sur 0.8 -- -- 98
2020-06-16 04:00:00 13.1 4 Sur 14 Sur 0.4 -- -- 96
2020-06-16 03:00:00 13.4 7 Sur 17 Sur 0 -- -- 91
2020-06-16 02:00:00 13.4 6 Sur 18 Sur 0 -- -- 89
2020-06-16 01:00:00 13.9 8 Sur 28 Sur 0 -- -- 84
2020-06-16 00:00:00 15 14 Sur 31 Sudoeste 0 -- -- 83
2020-06-15 23:00:00 14.7 6 Sudoeste 21 Sur 0 -- -- 86
2020-06-15 22:00:00 15.3 8 Sur 26 Sur 0 -- -- 84
2020-06-15 21:00:00 15.5 9 Sur 19 Sur 0 -- -- 86
2020-06-15 20:00:00 15.1 3 Norte 19 Norte 0 -- -- 90
2020-06-15 19:00:00 17.5 7 Sur 24 Sudeste 0 -- -- 77
2020-06-15 18:00:00 17.1 9 Sur 25 Sur 0 -- -- 84
2020-06-15 17:00:00 15.7 5 Sur 24 Sur 0 -- -- 85
2020-06-15 16:00:00 16.7 18 Sur 34 Sur 0 -- -- 76
2020-06-15 15:00:00 16.9 15 Sur 26 Sur 0 -- -- 80
2020-06-15 14:00:00 15.7 18 Sur 32 Sur 0 -- -- 81
2020-06-15 13:00:00 15.6 16 Sur 32 Sur 0 -- -- 80
2020-06-15 12:00:00 15.3 17 Sur 32 Sur 0 -- -- 80
2020-06-15 11:00:00 15.1 18 Sur 40 Sur 0 -- -- 80
2020-06-15 10:00:00 14.7 29 Sur 50 Sur 0 -- -- 80
2020-06-15 09:00:00 14.1 26 Sur 50 Sur 0 -- -- 84
2020-06-15 08:00:00 13.5 18 Sur 33 Sudeste 0 -- -- 87
2020-06-15 07:00:00 13.3 12 Sur 27 Sudoeste 0 -- -- 87
2020-06-15 06:00:00 13.3 14 Sur 25 Sur 0 -- -- 86
2020-06-15 05:00:00 13.3 11 Sur 27 Sur 0 -- -- 85
2020-06-15 04:00:00 12.9 9 Sur 28 Sur 0 -- -- 86
2020-06-15 03:00:00 12.9 14 Sur 35 Sur 0 -- -- 87
2020-06-15 02:00:00 13.3 19 Sur 34 Sur 0 -- -- 86
2020-06-15 01:00:00 14 17 Sur 40 Sur 0 -- -- 84
2020-06-15 00:00:00 13.8 10 Sur 16 Sur 0 -- -- 86
2020-06-14 23:00:00 13.8 10 Sur 23 Sur 0 -- -- 86
2020-06-14 22:00:00 14.6 17 Sur 31 Sudeste 0 -- -- 81
2020-06-14 21:00:00 14.9 8 Sur 30 Sudeste 0 -- -- 81
2020-06-14 20:00:00 15.3 15 Sur 26 Sur 0 -- -- 81
2020-06-14 19:00:00 15.3 13 Sur 27 Sudeste 0 -- -- 79
2020-06-14 18:00:00 16.1 10 Sur 24 Sur 0 -- -- 77
2020-06-14 17:00:00 16.6 15 Sur 36 Sur 0 -- -- 74
2020-06-14 16:00:00 17 21 Sur 42 Sur 0 -- -- 71
2020-06-14 15:00:00 16.7 20 Sur 38 Sur 0 -- -- 72
2020-06-14 14:00:00 17 17 Sur 35 Sur 0 -- -- 72
2020-06-14 13:00:00 16.5 18 Sur 38 Sur 0 -- -- 75
2020-06-14 12:00:00 15.7 24 Sur 51 Sur 0 -- -- 75
2020-06-14 11:00:00 14.3 25 Sur 41 Sur 0 -- -- 81
2020-06-14 10:00:00 14.6 24 Sur 37 Sur 0 -- -- 83
2020-06-14 09:00:00 13.2 21 Sur 36 Sur 0 -- -- 86
2020-06-14 08:00:00 12.5 15 Sur 31 Sur 0 -- -- 88
2020-06-14 07:00:00 11.8 19 Sur 31 Sur 0 -- -- 90
2020-06-14 06:00:00 12.7 15 Sur 33 Sur 0 -- -- 85
2020-06-14 05:00:00 11.6 10 Sur 29 Sur 0 -- -- 88
2020-06-14 04:00:00 11.8 9 Sur 33 Sur 0 -- -- 86
2020-06-14 03:00:00 12.3 15 Sur 37 Sur 0 -- -- 84
2020-06-14 02:00:00 12.7 23 Sur 41 Sur 0 -- -- 81
2020-06-14 01:00:00 13 22 Sur 39 Sur 0 -- -- 80
2020-06-14 00:00:00 13.5 23 Sur 40 Sur 0 -- -- 80
2020-06-13 23:00:00 14 19 Sur 37 Sur 0 -- -- 78
2020-06-13 22:00:00 14.3 20 Sur 43 Sur 0 -- -- 76
2020-06-13 21:00:00 15 26 Sur 47 Sur 0 -- -- 74
2020-06-13 20:00:00 15.7 24 Sur 53 Sur 0 -- -- 74
2020-06-13 19:00:00 16.4 27 Sur 51 Sur 0 -- -- 73
2020-06-13 18:00:00 16 27 Sur 40 Sur 0.2 -- -- 81
2020-06-13 17:00:00 16.3 23 Sur 49 Sur 0.2 -- -- 75
2020-06-13 16:00:00 16.4 21 Sur 42 Sur 0 -- -- 79
2020-06-13 15:00:00 14.4 23 Sur 41 Sur 0 -- -- 84
2020-06-13 14:00:00 13.6 23 Sur 34 Sur 0 -- -- 89
2020-06-13 13:00:00 12.6 17 Sur 34 Sur 0 -- -- 93
2020-06-13 12:00:00 13.2 20 Sur 43 Sur 0 -- -- 91
2020-06-13 11:00:00 12.2 15 Sur 39 Sur 0.4 -- -- 92
2020-06-13 10:00:00 12.8 24 Sur 40 Sur 0 -- -- 89
2020-06-13 09:00:00 12.4 23 Sur 45 Sur 0 -- -- 90
2020-06-13 08:00:00 12 21 Sur 45 Sur 0 -- -- 92
2020-06-13 07:00:00 11.8 25 Sur 45 Sur 0 -- -- 93
2020-06-13 06:00:00 11.6 22 Sur 42 Sur 0 -- -- 96
2020-06-13 05:00:00 11.1 19 Sur 36 Sur 0.2 -- -- 98
2020-06-13 04:00:00 11 21 Sur 41 Sur 1 -- -- 97
2020-06-13 03:00:00 11.4 19 Sur 44 Sudeste 0 -- -- 94
2020-06-13 02:00:00 11.8 21 Sur 36 Sur 0 -- -- 93
2020-06-13 01:00:00 11.8 16 Sur 29 Sur 0 -- -- 92
2020-06-13 00:00:00 11.8 16 Sur 28 Sur 0 -- -- 94
2020-06-12 23:00:00 11.7 15 Sur 29 Sur 0 -- -- 95
2020-06-12 22:00:00 11.8 8 Sur 21 Sur 0 -- -- 96
2020-06-12 21:00:00 12 10 Sur 21 Sur 0.2 -- -- 96
2020-06-12 20:00:00 12.2 8 Sur 17 Sur 0.6 -- -- 94
2020-06-12 19:00:00 12.9 9 Sur 35 Sur 0.4 -- -- 85
2020-06-12 18:00:00 14.6 9 Sudeste 23 Sudoeste 0 -- -- 79
2020-06-12 17:00:00 15.3 7 Norte 18 Norte 0 -- -- 84
2020-06-12 16:00:00 14.8 14 Norte 23 Norte 0 -- -- 89
2020-06-12 15:00:00 14.1 14 Norte 24 Norte 0 -- -- 91
2020-06-12 14:00:00 13.5 4 Sur 11 Sur 0 -- -- 98
2020-06-12 13:00:00 11 4 Sudeste 22 Norte 1 -- -- 100
2020-06-12 12:00:00 10.7 20 Norte 39 Norte 3 -- -- 97
2020-06-12 11:00:00 11.3 21 Sur 42 Sur 0 -- -- 92
2020-06-12 10:00:00 10.8 20 Sur 42 Sur 0 -- -- 93
2020-06-12 09:00:00 10.4 19 Sur 33 Sur 0 -- -- 96
2020-06-12 08:00:00 10.1 19 Sur 36 Sur 0 -- -- 98
2020-06-12 07:00:00 9.3 9 Sur 23 Sur 0 -- -- 99
2020-06-12 06:00:00 9.2 10 Sur 19 Sur 0.2 -- -- 99
2020-06-12 05:00:00 9.6 6 Sur 16 Sudeste 0 -- -- 97
2020-06-12 04:00:00 10 8 Sudeste 20 Sudeste 0.2 -- -- 98
2020-06-12 03:00:00 10.4 5 Sudeste 35 Sudeste 0.4 -- -- 97
2020-06-12 02:00:00 11.1 16 Sudeste 37 Sudeste 0.4 -- -- 97
2020-06-12 01:00:00 10.9 17 Sur 50 Sudeste 0.8 -- -- 98
2020-06-12 00:00:00 10.4 36 Sur 57 Sur 1.4 -- -- 97
2020-06-11 23:00:00 10.3 39 Sur 64 Sur 0.6 -- -- 95
2020-06-11 22:00:00 10.5 33 Sur 62 Sur 0 -- -- 91
2020-06-11 21:00:00 11.2 35 Sur 60 Sur 0 -- -- 84
2020-06-11 20:00:00 11.6 24 Sur 42 Sur 0 -- -- 88
2020-06-11 19:00:00 11 16 Sur 27 Sur 0.6 -- -- 94
2020-06-11 18:00:00 10.6 10 Sudoeste 29 Sur 0.6 -- -- 89
2020-06-11 17:00:00 11.4 12 Sur 22 Sudeste 0.8 -- -- 87
2020-06-11 16:00:00 11.6 5 Sur 28 Sudeste 0.2 -- -- 87
2020-06-11 15:00:00 12.2 13 Nordeste 26 Nordeste 0.2 -- -- 82
2020-06-11 14:00:00 14.1 15 Sur 28 Sur 0 -- -- 79
2020-06-11 13:00:00 12.5 12 Sudeste 28 Este 0 -- -- 92
2020-06-11 12:00:00 11.4 10 Sur 18 Sudeste 0 -- -- 99
2020-06-11 11:00:00 11.5 8 Sur 23 Nordeste 0 -- -- 100
2020-06-11 10:00:00 11.1 13 Norte 41 Nordeste 4.4 -- -- 99
2020-06-11 09:00:00 12.8 12 Sur 28 Sudeste 0 -- -- 95
2020-06-11 08:00:00 12.7 19 Sur 36 Sudeste 0 -- -- 93
2020-06-11 07:00:00 12.9 25 Sur 45 Sur 0 -- -- 90
2020-06-11 06:00:00 12.9 23 Sur 43 Sur 0 -- -- 88
2020-06-11 05:00:00 13 22 Sur 41 Sur 0 -- -- 81
2020-06-11 04:00:00 12.8 21 Sur 40 Sur 0 -- -- 79
2020-06-11 03:00:00 12.8 16 Sur 31 Sur 0 -- -- 79
2020-06-11 02:00:00 13 16 Sur 26 Sur 0 -- -- 83
2020-06-11 01:00:00 12.2 14 Sur 26 Sur 0 -- -- 95
2020-06-11 00:00:00 11.4 7 Sur 11 Sur 0 -- -- 94